createdAt,value
2022-10-08T00:00:57.806Z,9.40
2022-10-08T00:03:27.068Z,9.50
2022-10-08T00:06:21.353Z,8.00
2022-10-08T00:08:51.169Z,10.77
2022-10-08T00:11:24.180Z,7.32
2022-10-08T00:13:52.494Z,8.18
2022-10-08T00:16:28.827Z,10.05
2022-10-08T00:18:59.540Z,8.10
2022-10-08T00:21:29.994Z,9.23
2022-10-08T00:23:58.183Z,9.52
2022-10-08T00:26:26.786Z,9.60
2022-10-08T00:28:56.484Z,7.43
2022-10-08T00:31:26.149Z,7.10
2022-10-08T00:33:56.287Z,8.57
2022-10-08T00:36:25.555Z,7.78
2022-10-08T00:39:17.183Z,6.22
2022-10-08T00:41:48.715Z,6.72
2022-10-08T00:44:50.729Z,5.75
2022-10-08T00:47:29.602Z,7.00
2022-10-08T00:50:03.603Z,10.85
2022-10-08T00:52:34.890Z,4.75
2022-10-08T00:55:06.924Z,4.10
2022-10-08T00:57:35.810Z,7.63
2022-10-08T01:00:10.143Z,11.32
2022-10-08T01:05:05.204Z,5.28
2022-10-08T01:07:43.830Z,5.75
2022-10-08T01:10:34.739Z,9.27
2022-10-08T01:13:27.226Z,6.38
2022-10-08T01:16:17.505Z,5.45
2022-10-08T01:19:06.891Z,7.18
2022-10-08T01:22:12.123Z,5.25
2022-10-08T01:27:46.467Z,7.70
2022-10-08T01:30:18.312Z,5.28
2022-10-08T01:32:53.663Z,4.43
2022-10-08T01:35:35.554Z,5.03
2022-10-08T01:38:06.931Z,3.75
2022-10-08T01:40:36.931Z,6.78
2022-10-08T01:43:07.913Z,4.95
2022-10-08T01:45:38.619Z,4.70
2022-10-08T01:48:12.117Z,6.70
2022-10-08T01:50:44.432Z,5.50
2022-10-08T01:53:15.065Z,6.20
2022-10-08T01:55:47.901Z,6.90
2022-10-08T01:58:29.087Z,6.45
2022-10-08T02:00:59.797Z,10.50
2022-10-08T02:03:26.530Z,6.60
2022-10-08T02:05:55.608Z,6.05
2022-10-08T02:08:22.810Z,9.57
2022-10-08T02:10:49.708Z,11.32
2022-10-08T02:13:16.450Z,4.55
2022-10-08T02:16:01.222Z,5.75
2022-10-08T02:18:40.722Z,8.98
2022-10-08T02:21:21.003Z,5.70
2022-10-08T02:23:56.402Z,8.48
2022-10-08T02:26:31.928Z,5.05
2022-10-08T02:29:04.054Z,5.95
2022-10-08T02:31:47.856Z,9.45
2022-10-08T02:34:29.596Z,6.85
2022-10-08T02:37:03.434Z,5.57
2022-10-08T02:39:34.240Z,6.32
2022-10-08T02:42:06.613Z,7.32
2022-10-08T02:44:38.824Z,7.93
2022-10-08T02:47:09.666Z,4.68
2022-10-08T02:49:41.258Z,6.53
2022-10-08T02:52:09.616Z,4.95
2022-10-08T02:54:39.298Z,6.03
2022-10-08T02:57:20.798Z,5.40
2022-10-08T02:59:48.591Z,6.38
2022-10-08T03:02:44.427Z,7.25
2022-10-08T03:05:17.072Z,6.35
2022-10-08T03:07:44.462Z,9.75
2022-10-08T03:10:12.699Z,5.80
2022-10-08T03:12:39.575Z,5.35
2022-10-08T03:15:08.742Z,5.32
2022-10-08T03:17:47.218Z,6.70
2022-10-08T03:20:14.291Z,8.77
2022-10-08T03:22:41.029Z,6.03
2022-10-08T03:25:08.175Z,4.10
2022-10-08T03:27:37.597Z,5.57
2022-10-08T03:30:04.727Z,5.57
2022-10-08T03:32:31.497Z,5.72
2022-10-08T03:34:58.037Z,4.80
2022-10-08T03:37:24.871Z,5.20
2022-10-08T03:39:52.098Z,6.78
2022-10-08T03:42:18.813Z,8.93
2022-10-08T03:44:45.499Z,5.30
2022-10-08T03:47:12.123Z,5.40
2022-10-08T03:49:39.889Z,7.50
2022-10-08T03:52:06.656Z,7.28
2022-10-08T03:54:36.798Z,4.30
2022-10-08T03:57:03.679Z,8.07
2022-10-08T03:59:30.646Z,5.90
2022-10-08T04:01:57.238Z,7.70
2022-10-08T04:04:25.783Z,4.10
2022-10-08T04:06:52.635Z,4.57
2022-10-08T04:09:19.321Z,5.57
2022-10-08T04:11:46.116Z,5.07
2022-10-08T04:14:12.696Z,7.03
2022-10-08T04:16:39.347Z,10.32
2022-10-08T04:19:06.227Z,8.02
2022-10-08T04:21:32.866Z,8.82
2022-10-08T04:23:59.435Z,7.07
2022-10-08T04:26:26.140Z,5.70
2022-10-08T04:28:52.835Z,6.47
2022-10-08T04:31:23.185Z,6.03
2022-10-08T04:33:51.321Z,6.35
2022-10-08T04:36:25.357Z,6.88
2022-10-08T04:38:52.102Z,5.57
2022-10-08T04:41:23.818Z,6.85
2022-10-08T04:43:51.285Z,6.93
2022-10-08T04:46:20.071Z,9.13
2022-10-08T04:48:52.908Z,6.10
2022-10-08T04:51:20.518Z,7.30
2022-10-08T04:53:47.153Z,6.28
2022-10-08T04:56:18.183Z,8.50
2022-10-08T04:58:45.563Z,9.80
2022-10-08T05:01:15.485Z,7.28
2022-10-08T05:03:44.728Z,4.80
2022-10-08T05:06:12.785Z,9.35
2022-10-08T05:08:39.401Z,6.97
2022-10-08T05:11:07.177Z,11.82
2022-10-08T05:13:34.263Z,10.52
2022-10-08T05:16:12.464Z,11.90
2022-10-08T05:18:40.793Z,8.60
2022-10-08T05:21:13.753Z,9.43
2022-10-08T05:23:42.695Z,7.90
2022-10-08T05:26:18.353Z,10.20
2022-10-08T05:28:49.171Z,9.82
2022-10-08T05:31:16.350Z,8.10
2022-10-08T05:33:43.401Z,8.50
2022-10-08T05:36:19.980Z,8.80
2022-10-08T05:38:46.819Z,9.63
2022-10-08T05:41:14.650Z,8.32
2022-10-08T05:43:41.374Z,10.38
2022-10-08T05:46:08.508Z,10.88
2022-10-08T05:48:35.625Z,9.32
2022-10-08T05:51:07.859Z,11.98
2022-10-08T05:53:39.236Z,8.05
2022-10-08T05:56:07.765Z,5.82
2022-10-08T05:58:36.262Z,8.20
2022-10-08T06:01:05.957Z,11.75
2022-10-08T06:03:33.070Z,18.02
2022-10-08T06:06:05.429Z,11.23
2022-10-08T06:08:32.767Z,23.20
2022-10-08T06:11:00.022Z,14.07
2022-10-08T06:13:27.196Z,12.95
2022-10-08T06:15:58.944Z,10.15
2022-10-08T06:18:27.351Z,5.80
2022-10-08T06:20:54.352Z,10.00
2022-10-08T06:23:22.701Z,8.00
2022-10-08T06:25:49.256Z,8.65
2022-10-08T06:28:16.667Z,7.30
2022-10-08T06:30:43.494Z,8.18
2022-10-08T06:33:10.584Z,6.13
2022-10-08T06:35:37.632Z,8.02
2022-10-08T06:38:04.996Z,11.93
2022-10-08T06:40:33.235Z,11.43
2022-10-08T06:42:59.937Z,10.30
2022-10-08T06:45:26.547Z,9.85
2022-10-08T06:47:53.321Z,8.88
2022-10-08T06:50:19.904Z,8.45
2022-10-08T06:52:46.676Z,12.07
2022-10-08T06:55:13.481Z,11.38
2022-10-08T06:57:40.113Z,13.43
2022-10-08T07:00:07.489Z,9.85
2022-10-08T07:02:34.139Z,7.78
2022-10-08T07:05:00.810Z,7.65
2022-10-08T07:07:27.398Z,8.98
2022-10-08T07:09:53.944Z,11.38
2022-10-08T07:12:20.554Z,11.68
2022-10-08T07:14:47.332Z,19.83
2022-10-08T07:17:13.921Z,17.55
2022-10-08T07:19:40.509Z,12.82
2022-10-08T07:22:07.264Z,10.93
2022-10-08T07:24:33.838Z,15.02
2022-10-08T07:27:00.876Z,13.38
2022-10-08T07:29:27.838Z,14.60
2022-10-08T07:31:54.497Z,16.48
2022-10-08T07:34:21.339Z,15.65
2022-10-08T07:36:48.226Z,13.52
2022-10-08T07:39:20.255Z,17.95
2022-10-08T07:41:48.045Z,17.55
2022-10-08T07:44:16.094Z,17.30
2022-10-08T07:46:45.308Z,19.52
2022-10-08T07:49:12.710Z,22.90
2022-10-08T07:51:39.699Z,20.65
2022-10-08T07:54:08.622Z,14.18
2022-10-08T07:56:36.388Z,18.80
2022-10-08T07:59:04.203Z,19.52
2022-10-08T08:01:32.754Z,15.70
2022-10-08T08:04:02.154Z,12.50
2022-10-08T08:06:30.303Z,15.55
2022-10-08T08:08:57.356Z,18.60
2022-10-08T08:11:24.917Z,11.63
2022-10-08T08:13:52.224Z,16.42
2022-10-08T08:16:27.545Z,12.85
2022-10-08T08:18:57.135Z,9.40
2022-10-08T08:21:29.278Z,11.93
2022-10-08T08:23:58.246Z,10.40
2022-10-08T08:26:32.744Z,9.32
2022-10-08T08:29:01.769Z,11.50
2022-10-08T08:31:40.586Z,14.35
2022-10-08T08:34:09.990Z,14.70
2022-10-08T08:36:39.037Z,10.93
2022-10-08T08:39:07.766Z,11.90
2022-10-08T08:42:03.010Z,12.88
2022-10-08T08:44:42.548Z,12.07
2022-10-08T08:47:33.324Z,17.02
2022-10-08T08:50:24.961Z,11.45
2022-10-08T08:52:52.053Z,8.57
2022-10-08T08:55:22.694Z,8.85
2022-10-08T08:58:09.968Z,12.20
2022-10-08T09:00:41.756Z,13.77
2022-10-08T09:03:24.355Z,12.45
2022-10-08T09:05:57.984Z,8.32
2022-10-08T09:08:33.760Z,12.05
2022-10-08T09:11:04.857Z,7.40
2022-10-08T09:13:52.934Z,9.10
2022-10-08T09:16:19.547Z,17.95
2022-10-08T09:18:48.976Z,14.52
2022-10-08T09:21:16.059Z,14.85
2022-10-08T09:23:43.102Z,12.07
2022-10-08T09:26:24.218Z,11.82
2022-10-08T09:28:58.031Z,9.15
2022-10-08T09:31:48.480Z,13.98
2022-10-08T09:34:24.756Z,12.05
2022-10-08T09:37:02.096Z,11.38
2022-10-08T09:39:31.397Z,15.75
2022-10-08T09:42:07.231Z,15.02
2022-10-08T09:44:43.881Z,15.85
2022-10-08T09:47:17.239Z,11.95
2022-10-08T09:49:44.900Z,11.65
2022-10-08T09:52:19.637Z,13.13
2022-10-08T09:54:49.336Z,11.57
2022-10-08T09:57:18.615Z,18.88
2022-10-08T09:59:52.898Z,13.85
2022-10-08T10:02:29.638Z,12.80
2022-10-08T10:04:57.312Z,10.75
2022-10-08T10:07:24.688Z,12.20
2022-10-08T10:09:56.097Z,9.07
2022-10-08T10:12:28.859Z,9.60
2022-10-08T10:14:57.965Z,9.35
2022-10-08T10:17:48.513Z,12.27
2022-10-08T10:20:38.382Z,17.00
2022-10-08T10:23:12.029Z,9.85
2022-10-08T10:25:45.335Z,13.30
2022-10-08T10:28:18.475Z,11.50
2022-10-08T10:30:59.030Z,13.50
2022-10-08T10:33:36.278Z,13.38
2022-10-08T10:36:09.638Z,11.27
2022-10-08T10:38:45.334Z,13.10
2022-10-08T10:41:36.643Z,8.45
2022-10-08T10:44:10.147Z,9.32
2022-10-08T10:46:41.308Z,13.60
2022-10-08T10:49:22.172Z,12.27
2022-10-08T10:52:10.286Z,10.00
2022-10-08T10:54:45.801Z,11.20
2022-10-08T10:57:41.241Z,10.50
2022-10-08T11:00:22.943Z,15.07
2022-10-08T11:03:02.756Z,14.15
2022-10-08T11:05:39.733Z,12.82
2022-10-08T11:08:18.910Z,11.15
2022-10-08T11:11:10.399Z,11.45
2022-10-08T11:13:51.546Z,11.68
2022-10-08T11:16:56.512Z,12.90
2022-10-08T11:19:36.442Z,9.80
2022-10-08T11:22:28.073Z,7.70
2022-10-08T11:25:14.762Z,5.68
2022-10-08T11:27:53.101Z,9.75
2022-10-08T11:30:30.413Z,10.93
2022-10-08T11:32:57.987Z,16.42
2022-10-08T11:35:54.440Z,13.27
2022-10-08T11:38:47.745Z,10.82
2022-10-08T11:41:50.652Z,13.13
2022-10-08T11:44:17.789Z,11.77
2022-10-08T11:46:45.432Z,10.95
2022-10-08T11:49:19.025Z,11.85
2022-10-08T11:51:55.761Z,12.07
2022-10-08T11:54:39.712Z,10.43
2022-10-08T12:00:06.972Z,8.40
2022-10-08T12:02:42.882Z,13.38
2022-10-08T12:05:40.203Z,10.65
2022-10-08T12:08:15.130Z,8.98
2022-10-08T12:10:42.036Z,9.18
2022-10-08T12:13:16.777Z,12.73
2022-10-08T12:15:59.701Z,13.05
2022-10-08T12:18:26.626Z,12.27
2022-10-08T12:21:22.781Z,8.05
2022-10-08T12:23:49.540Z,13.23
2022-10-08T12:26:16.653Z,12.52
2022-10-08T12:28:43.312Z,11.35
2022-10-08T12:31:49.519Z,9.43
2022-10-08T12:34:22.894Z,12.20
2022-10-08T12:37:31.165Z,11.10
2022-10-08T12:40:18.189Z,11.38
2022-10-08T12:43:02.685Z,12.55
2022-10-08T12:48:40.404Z,12.40
2022-10-08T12:51:25.056Z,17.40
2022-10-08T12:53:58.156Z,16.48
2022-10-08T12:56:37.557Z,10.90
2022-10-08T12:59:11.074Z,20.83
2022-10-08T13:01:40.186Z,16.63
2022-10-08T13:04:30.931Z,18.08
2022-10-08T13:07:06.946Z,12.52
2022-10-08T13:09:38.737Z,16.05
2022-10-08T13:12:14.818Z,20.60
2022-10-08T13:15:01.875Z,18.70
2022-10-08T13:17:31.127Z,16.90
2022-10-08T13:20:17.326Z,11.45
2022-10-08T13:22:44.787Z,13.43
2022-10-08T13:25:36.277Z,8.57
2022-10-08T13:28:41.734Z,8.93
2022-10-08T13:31:33.286Z,14.57
2022-10-08T13:34:41.194Z,10.95
2022-10-08T13:40:53.134Z,10.50
2022-10-08T13:43:23.290Z,10.98
2022-10-08T13:45:52.839Z,9.65
2022-10-08T13:48:19.584Z,11.05
2022-10-08T13:50:50.146Z,12.82
2022-10-08T13:53:57.033Z,13.02
2022-10-08T13:56:24.369Z,12.07
2022-10-08T13:58:57.679Z,13.02
2022-10-08T14:01:48.319Z,10.20
2022-10-08T14:07:29.161Z,12.20
2022-10-08T14:09:57.864Z,16.67
2022-10-08T14:12:28.690Z,7.93
2022-10-08T14:14:55.433Z,9.45
2022-10-08T14:17:47.747Z,9.77
2022-10-08T14:20:14.754Z,10.80
2022-10-08T14:22:41.425Z,10.57
2022-10-08T14:25:20.407Z,10.68
2022-10-08T14:27:47.776Z,8.77
2022-10-08T14:30:18.396Z,8.95
2022-10-08T14:32:48.772Z,7.35
2022-10-08T14:35:27.590Z,10.57
2022-10-08T14:37:56.736Z,14.27
2022-10-08T14:40:23.665Z,6.95
2022-10-08T14:43:27.625Z,5.20
2022-10-08T14:45:54.599Z,8.50
2022-10-08T14:48:36.621Z,6.45
2022-10-08T14:51:03.352Z,11.57
2022-10-08T14:53:30.064Z,4.13
2022-10-08T14:56:12.182Z,7.70
2022-10-08T14:58:43.005Z,5.55
2022-10-08T15:01:09.855Z,6.90
2022-10-08T15:04:14.835Z,10.65
2022-10-08T15:06:48.891Z,6.50
2022-10-08T15:09:28.343Z,7.53
2022-10-08T15:11:55.062Z,9.00
2022-10-08T15:14:57.414Z,8.25
2022-10-08T15:17:40.156Z,8.02
2022-10-08T15:20:07.134Z,11.50
2022-10-08T15:22:33.730Z,8.77
2022-10-08T15:25:00.402Z,8.10
2022-10-08T15:27:29.764Z,6.43
2022-10-08T15:29:56.403Z,5.95
2022-10-08T15:32:31.294Z,6.28
2022-10-08T15:34:57.955Z,4.72
2022-10-08T15:37:24.549Z,7.60
2022-10-08T15:39:51.987Z,4.97
2022-10-08T15:42:18.706Z,5.10
2022-10-08T15:44:56.294Z,8.15
2022-10-08T15:47:23.184Z,5.72
2022-10-08T15:49:50.113Z,5.35
2022-10-08T15:52:19.625Z,8.43
2022-10-08T15:54:47.430Z,7.10
2022-10-08T15:57:16.825Z,6.90
2022-10-08T15:59:49.714Z,5.15
2022-10-08T16:02:18.107Z,7.65
2022-10-08T16:04:48.627Z,12.43
2022-10-08T16:07:18.847Z,10.80
2022-10-08T16:09:49.229Z,6.80
2022-10-08T16:12:16.199Z,6.28
2022-10-08T16:14:42.809Z,3.78
2022-10-08T16:17:27.334Z,6.95
2022-10-08T16:22:38.207Z,6.22
2022-10-08T16:25:05.168Z,6.53
2022-10-08T16:27:31.745Z,8.43
2022-10-08T16:33:19.461Z,4.15
2022-10-08T16:35:46.302Z,10.00
2022-10-08T16:38:15.948Z,3.75
2022-10-08T16:40:45.898Z,4.85
2022-10-08T16:43:15.538Z,3.55
2022-10-08T16:45:42.212Z,4.25
2022-10-08T16:48:11.337Z,4.07
2022-10-08T16:50:44.187Z,4.00
2022-10-08T16:53:13.764Z,3.83
2022-10-08T16:55:55.939Z,3.20
2022-10-08T16:58:22.570Z,2.60
2022-10-08T17:01:05.763Z,5.57
2022-10-08T17:03:51.863Z,6.10
2022-10-08T17:06:20.701Z,6.07
2022-10-08T17:08:47.970Z,4.13
2022-10-08T17:11:15.211Z,5.05
2022-10-08T17:13:43.484Z,4.78
2022-10-08T17:16:11.617Z,6.35
2022-10-08T17:18:38.951Z,3.13
2022-10-08T17:21:06.710Z,5.70
2022-10-08T17:23:38.064Z,6.72
2022-10-08T17:26:23.638Z,8.38
2022-10-08T17:28:51.891Z,4.35
2022-10-08T17:31:27.124Z,4.40
2022-10-08T17:33:53.740Z,4.32
2022-10-08T17:36:50.053Z,9.13
2022-10-08T17:39:16.728Z,6.78
2022-10-08T17:41:43.753Z,7.22
2022-10-08T17:44:22.747Z,5.53
2022-10-08T17:46:49.446Z,9.10
2022-10-08T17:49:51.746Z,8.82
2022-10-08T17:52:18.328Z,9.57
2022-10-08T17:55:05.888Z,7.13
2022-10-08T17:57:41.212Z,9.13
2022-10-08T18:00:20.597Z,4.00
2022-10-08T18:02:59.054Z,4.85
2022-10-08T18:05:34.765Z,6.07
2022-10-08T18:08:01.439Z,6.20
2022-10-08T18:10:28.049Z,4.22
2022-10-08T18:13:06.446Z,6.63
2022-10-08T18:15:36.607Z,7.40
2022-10-08T18:18:09.248Z,7.50
2022-10-08T18:20:35.990Z,3.45
2022-10-08T18:23:14.749Z,5.82
2022-10-08T18:25:41.420Z,4.22
2022-10-08T18:28:14.139Z,5.10
2022-10-08T18:36:56.341Z,8.93
2022-10-08T18:39:28.255Z,7.78
2022-10-08T18:42:05.298Z,5.07
2022-10-08T18:44:31.886Z,4.43
2022-10-08T18:47:05.854Z,6.68
2022-10-08T18:49:33.717Z,2.83
2022-10-08T18:52:01.400Z,8.15
2022-10-08T18:54:28.352Z,7.63
2022-10-08T18:57:00.278Z,9.45
2022-10-08T18:59:27.412Z,6.47
2022-10-08T19:01:58.993Z,10.07
2022-10-08T19:04:26.348Z,5.82
2022-10-08T19:07:08.520Z,6.93
2022-10-08T19:09:35.188Z,6.88
2022-10-08T19:12:02.282Z,6.78
2022-10-08T19:14:28.987Z,9.02
2022-10-08T19:16:55.734Z,7.03
2022-10-08T19:19:24.581Z,6.32
2022-10-08T19:21:53.142Z,6.10
2022-10-08T19:24:24.596Z,6.18
2022-10-08T19:26:51.993Z,5.63
2022-10-08T19:29:39.353Z,5.32
2022-10-08T19:32:05.985Z,7.43
2022-10-08T19:34:33.412Z,6.07
2022-10-08T19:37:00.163Z,7.78
2022-10-08T19:39:28.975Z,5.15
2022-10-08T19:41:59.449Z,5.55
2022-10-08T19:44:26.042Z,9.25
2022-10-08T19:46:52.840Z,14.52
2022-10-08T19:49:20.118Z,6.07
2022-10-08T19:51:47.092Z,11.90
2022-10-08T19:54:14.489Z,6.78
2022-10-08T19:56:42.043Z,7.40
2022-10-08T19:59:10.412Z,7.25
2022-10-08T20:01:39.126Z,9.25
2022-10-08T20:04:07.160Z,6.45
2022-10-08T20:06:38.556Z,6.60
2022-10-08T20:09:06.882Z,7.13
2022-10-08T20:11:36.852Z,5.32
2022-10-08T20:14:04.422Z,5.35
2022-10-08T20:16:34.180Z,5.95
2022-10-08T20:19:07.284Z,6.88
2022-10-08T20:21:37.310Z,7.15
2022-10-08T20:24:04.418Z,4.70
2022-10-08T20:26:42.091Z,6.68
2022-10-08T20:29:13.046Z,9.23
2022-10-08T20:31:49.476Z,7.57
2022-10-08T20:34:21.231Z,6.22
2022-10-08T20:36:48.763Z,10.32
2022-10-08T20:39:27.788Z,7.85
2022-10-08T20:41:54.916Z,6.03
2022-10-08T20:44:21.690Z,9.00
2022-10-08T20:46:50.698Z,5.47
2022-10-08T20:49:20.627Z,5.22
2022-10-08T20:51:49.800Z,4.57
2022-10-08T20:54:16.809Z,5.18
2022-10-08T20:56:44.264Z,4.43
2022-10-08T20:59:16.324Z,8.35
2022-10-08T21:01:48.361Z,10.88
2022-10-08T21:04:15.534Z,6.15
2022-10-08T21:06:50.346Z,9.25
2022-10-08T21:09:19.127Z,6.80
2022-10-08T21:11:46.045Z,6.43
2022-10-08T21:14:16.503Z,7.63
2022-10-08T21:16:43.278Z,11.13
2022-10-08T21:19:13.988Z,7.53
2022-10-08T21:21:41.224Z,7.00
2022-10-08T21:24:09.239Z,5.90
2022-10-08T21:26:39.058Z,6.38
2022-10-08T21:29:08.822Z,7.63
2022-10-08T21:31:37.449Z,7.72
2022-10-08T21:34:05.824Z,9.13
2022-10-08T21:36:38.799Z,6.13
2022-10-08T21:39:07.736Z,6.20
2022-10-08T21:41:36.794Z,10.82
2022-10-08T21:44:06.448Z,11.43
2022-10-08T21:46:36.149Z,7.82
2022-10-08T21:49:10.952Z,5.90
2022-10-08T21:51:41.004Z,4.38
2022-10-08T21:54:12.637Z,5.25
2022-10-08T21:56:41.304Z,13.18
2022-10-08T21:59:13.033Z,7.90
2022-10-08T22:01:58.219Z,7.88
2022-10-08T22:04:28.297Z,8.65
2022-10-08T22:06:58.467Z,7.47
2022-10-08T22:09:30.909Z,7.78
2022-10-08T22:11:58.665Z,9.18
2022-10-08T22:14:26.180Z,13.25
2022-10-08T22:16:53.231Z,10.30
2022-10-08T22:19:20.335Z,7.82
2022-10-08T22:21:47.453Z,9.68
2022-10-08T22:24:15.164Z,13.93
2022-10-08T22:26:44.359Z,10.73
2022-10-08T22:29:11.281Z,10.82
2022-10-08T22:31:38.438Z,13.82
2022-10-08T22:34:05.940Z,9.38
2022-10-08T22:36:38.408Z,10.75
2022-10-08T22:39:05.242Z,7.35
2022-10-08T22:41:32.448Z,10.38
2022-10-08T22:44:00.191Z,11.05
2022-10-08T22:46:30.084Z,5.90
2022-10-08T22:49:02.137Z,6.40
2022-10-08T22:51:29.944Z,8.60
2022-10-08T22:53:56.958Z,6.65
2022-10-08T22:56:26.496Z,8.60
2022-10-08T22:58:53.518Z,9.75
2022-10-08T23:01:22.991Z,11.57
2022-10-08T23:03:50.744Z,11.18
2022-10-08T23:06:23.960Z,9.00
2022-10-08T23:08:59.491Z,9.73
2022-10-08T23:11:27.830Z,8.52
2022-10-08T23:13:56.609Z,11.82
2022-10-08T23:19:11.524Z,10.63
2022-10-08T23:21:39.712Z,12.05
2022-10-08T23:24:07.988Z,8.10
2022-10-08T23:26:36.209Z,9.60
2022-10-08T23:29:04.545Z,6.38
2022-10-08T23:31:34.397Z,5.05
2022-10-08T23:34:01.902Z,6.07
2022-10-08T23:36:32.153Z,9.50
2022-10-08T23:38:58.757Z,4.47
2022-10-08T23:41:35.293Z,5.82
2022-10-08T23:44:02.098Z,6.20
2022-10-08T23:46:30.078Z,8.60
2022-10-08T23:49:18.583Z,7.38
2022-10-08T23:51:45.251Z,8.77
2022-10-08T23:54:14.606Z,5.97
2022-10-08T23:56:43.351Z,5.60
2022-10-08T23:59:10.042Z,8.55
